Kindersley Airport

CYKY | YKY

Kindersley , Saskatchewan , Canada

Sunday, January 19th, 2020 | 13:20

Weather

CYKY 191900Z 15009KT 15SM FEW230 M20/M25 A3037 RMK CI2 SLP365

Charts

No Charts Available

Gates

No Gates Available

Runways

2 Available

Events

No events for this airport


New event